createdAt,value
2019-01-21T00:00:53.115Z,0.97
2019-01-21T00:02:03.242Z,0.99
2019-01-21T00:03:19.853Z,0.94
2019-01-21T00:04:29.682Z,0.94
2019-01-21T00:05:39.522Z,0.92
2019-01-21T00:06:49.376Z,0.84
2019-01-21T00:07:59.487Z,0.86
2019-01-21T00:09:10.857Z,0.93
2019-01-21T00:10:20.432Z,0.92
2019-01-21T00:11:30.488Z,0.89
2019-01-21T00:12:40.556Z,0.9
2019-01-21T00:13:50.620Z,0.9
2019-01-21T00:15:02.052Z,0.9
2019-01-21T00:16:12.108Z,0.92
2019-01-21T00:17:27.391Z,0.92
2019-01-21T00:18:37.754Z,0.85
2019-01-21T00:19:47.588Z,0.85
2019-01-21T00:20:57.889Z,0.84
2019-01-21T00:22:07.754Z,0.9
2019-01-21T00:23:17.831Z,0.86
2019-01-21T00:24:27.899Z,0.9
2019-01-21T00:25:37.965Z,0.86
2019-01-21T00:26:48.031Z,0.86
2019-01-21T00:27:58.136Z,0.86
2019-01-21T00:29:10.673Z,0.81
2019-01-21T00:30:20.893Z,0.82
2019-01-21T00:31:30.711Z,0.84
2019-01-21T00:32:40.801Z,0.84
2019-01-21T00:33:50.846Z,0.78
2019-01-21T00:35:00.952Z,0.81
2019-01-21T00:36:11.006Z,0.85
2019-01-21T00:37:21.125Z,0.84
2019-01-21T00:38:30.946Z,0.89
2019-01-21T00:39:42.193Z,0.86
2019-01-21T00:40:52.236Z,0.85
2019-01-21T00:42:02.357Z,0.82
2019-01-21T00:43:12.420Z,0.84
2019-01-21T00:44:22.497Z,0.75
2019-01-21T00:45:33.056Z,0.78
2019-01-21T00:46:42.860Z,0.84
2019-01-21T00:47:52.967Z,0.72
2019-01-21T00:49:03.263Z,0.76
2019-01-21T00:50:13.428Z,0.67
2019-01-21T00:51:24.446Z,0.74
2019-01-21T00:52:34.761Z,0.64
2019-01-21T00:53:44.558Z,0.69
2019-01-21T00:54:56.008Z,0.76
2019-01-21T00:56:06.658Z,0.74
2019-01-21T00:57:16.455Z,0.74
2019-01-21T00:58:26.249Z,0.72
2019-01-21T00:59:36.068Z,0.67
2019-01-21T01:00:45.909Z,0.66
2019-01-21T01:01:56.081Z,0.74
2019-01-21T01:03:06.132Z,0.74
2019-01-21T01:04:16.443Z,0.64
2019-01-21T01:05:26.552Z,0.76
2019-01-21T01:06:36.682Z,0.71
2019-01-21T01:08:01.432Z,0.61
2019-01-21T01:09:10.980Z,0.58
2019-01-21T01:10:21.039Z,0.66
2019-01-21T01:11:31.091Z,0.56
2019-01-21T01:12:41.146Z,0.61
2019-01-21T01:13:51.244Z,0.63
2019-01-21T01:15:01.318Z,0.61
2019-01-21T01:16:10.865Z,0.61
2019-01-21T01:17:20.652Z,0.63
2019-01-21T01:18:30.458Z,0.58
2019-01-21T01:19:40.092Z,0.63
2019-01-21T01:20:50.150Z,0.58
2019-01-21T01:22:00.285Z,0.61
2019-01-21T01:23:10.094Z,0.63
2019-01-21T01:24:19.887Z,0.63
2019-01-21T01:25:30.024Z,0.61
2019-01-21T01:26:40.101Z,0.61
2019-01-21T01:27:50.379Z,0.56
2019-01-21T01:29:02.929Z,0.56
2019-01-21T01:30:12.986Z,0.52
2019-01-21T01:31:22.863Z,0.48
2019-01-21T01:32:32.920Z,0.52
2019-01-21T01:33:42.992Z,0.45
2019-01-21T01:34:53.032Z,0.45
2019-01-21T01:36:03.513Z,0.45
2019-01-21T01:37:13.647Z,0.52
2019-01-21T01:38:23.726Z,0.48
2019-01-21T01:39:33.528Z,0.45
2019-01-21T01:40:43.597Z,0.48
2019-01-21T01:41:53.678Z,0.47
2019-01-21T01:43:03.816Z,0.47
2019-01-21T01:44:14.295Z,0.47
2019-01-21T01:45:25.226Z,0.48
2019-01-21T01:46:35.940Z,0.45
2019-01-21T01:47:49.909Z,0.48
2019-01-21T01:48:59.742Z,0.47
2019-01-21T01:50:10.686Z,0.42
2019-01-21T01:51:20.500Z,0.41
2019-01-21T01:52:30.564Z,0.42
2019-01-21T01:53:40.662Z,0.41
2019-01-21T01:54:50.815Z,0.41
2019-01-21T01:56:01.439Z,0.42
2019-01-21T01:57:11.524Z,0.39
2019-01-21T01:58:21.615Z,0.41
2019-01-21T01:59:31.709Z,0.32
2019-01-21T02:00:41.815Z,0.39
2019-01-21T02:01:51.659Z,0.31
2019-01-21T02:03:01.741Z,0.35
2019-01-21T02:04:11.832Z,0.37
2019-01-21T02:05:22.047Z,0.32
2019-01-21T02:06:32.175Z,0.31
2019-01-21T02:07:42.296Z,0.35
2019-01-21T02:08:52.388Z,0.28
2019-01-21T02:10:02.576Z,0.31
2019-01-21T02:11:12.441Z,0.37
2019-01-21T02:12:22.266Z,0.35
2019-01-21T02:13:32.577Z,0.32
2019-01-21T02:14:42.854Z,0.37
2019-01-21T02:15:53.318Z,0.28
2019-01-21T02:17:04.115Z,0.32
2019-01-21T02:18:14.966Z,0.28
2019-01-21T02:19:25.923Z,0.24
2019-01-21T02:20:36.237Z,0.24
2019-01-21T02:21:46.309Z,0.1
2019-01-21T02:22:56.394Z,0.21
2019-01-21T02:24:05.951Z,0.17
2019-01-21T02:25:15.781Z,0.21
2019-01-21T02:26:25.876Z,0.16
2019-01-21T02:27:35.701Z,0.19
2019-01-21T02:28:45.778Z,0.2
2019-01-21T02:29:55.929Z,0.1
2019-01-21T02:31:07.621Z,0.13
2019-01-21T02:32:17.429Z,0.17
2019-01-21T02:33:27.533Z,0.16
2019-01-21T02:34:37.601Z,0.17
2019-01-21T02:35:47.699Z,0.13
2019-01-21T02:36:57.793Z,0.1
2019-01-21T02:38:08.949Z,0.1
2019-01-21T02:39:19.229Z,0.09
2019-01-21T02:40:29.154Z,0.08
2019-01-21T02:41:39.033Z,0.09
2019-01-21T02:42:49.123Z,0.1
2019-01-21T02:43:59.231Z,0.14
2019-01-21T02:45:09.315Z,0.09
2019-01-21T02:46:19.155Z,0.14
2019-01-21T02:47:29.079Z,0.1
2019-01-21T02:48:39.165Z,0.05
2019-01-21T02:49:48.995Z,0.1
2019-01-21T02:50:59.235Z,0.05
2019-01-21T02:52:09.891Z,0.08
2019-01-21T02:53:20.787Z,0.1
2019-01-21T02:54:31.676Z,0.13
2019-01-21T02:55:41.966Z,0.05
2019-01-21T02:56:52.059Z,0.08
2019-01-21T02:58:02.163Z,0.09
2019-01-21T02:59:12.245Z,0.02
2019-01-21T03:00:22.822Z,0.08
2019-01-21T03:01:32.445Z,0.06
2019-01-21T03:02:42.715Z,0.01
2019-01-21T03:34:55.415Z,-2.62
2019-01-21T03:36:06.280Z,-2.65
2019-01-21T03:37:16.262Z,-2.72
2019-01-21T03:38:25.838Z,-2.72
2019-01-21T03:39:35.663Z,-2.58
2019-01-21T03:40:45.760Z,-2.64
2019-01-21T03:41:55.898Z,-2.5
2019-01-21T03:43:06.354Z,-2.44
2019-01-21T03:44:17.079Z,-2.34
2019-01-21T03:45:28.130Z,-2.18
2019-01-21T03:46:39.087Z,-2.1
2019-01-21T03:47:49.173Z,-1.91
2019-01-21T03:48:59.510Z,-1.81
2019-01-21T03:50:09.598Z,-1.67
2019-01-21T03:51:19.785Z,-1.66
2019-01-21T03:52:29.393Z,-1.46
2019-01-21T03:53:39.504Z,-1.42
2019-01-21T03:54:50.074Z,-1.37
2019-01-21T03:56:00.201Z,-1.22
2019-01-21T03:57:10.291Z,-1.1
2019-01-21T03:58:20.667Z,-1.07
2019-01-21T03:59:30.994Z,-1.04
2019-01-21T04:00:40.827Z,-0.95
2019-01-21T04:01:51.156Z,-0.92
2019-01-21T04:03:01.249Z,-0.89
2019-01-21T04:04:11.172Z,-0.76
2019-01-21T04:05:21.264Z,-0.76
2019-01-21T04:06:31.369Z,-0.66
2019-01-21T04:07:41.221Z,-0.7
2019-01-21T04:08:51.318Z,-0.64
2019-01-21T04:10:03.969Z,-0.66
2019-01-21T04:11:14.064Z,-0.62
2019-01-21T04:12:24.145Z,-0.58
2019-01-21T04:13:34.239Z,-0.54
2019-01-21T04:14:44.307Z,-0.52
2019-01-21T04:15:54.207Z,-0.51
2019-01-21T04:17:05.784Z,-0.46
2019-01-21T04:18:16.152Z,-0.43
2019-01-21T04:19:32.824Z,-0.49
2019-01-21T04:20:43.280Z,-0.48
2019-01-21T04:21:53.432Z,-0.41
2019-01-21T04:23:03.277Z,-0.41
2019-01-21T04:24:13.391Z,-0.41
2019-01-21T04:25:23.320Z,-0.43
2019-01-21T04:26:33.407Z,-0.43
2019-01-21T04:27:43.239Z,-0.4
2019-01-21T04:28:53.332Z,-0.38
2019-01-21T04:30:03.730Z,-0.41
2019-01-21T04:31:13.847Z,-0.41
2019-01-21T04:32:23.929Z,-0.45
2019-01-21T04:33:33.755Z,-0.51
2019-01-21T04:34:43.859Z,-0.46
2019-01-21T04:35:53.923Z,-0.52
2019-01-21T04:37:04.011Z,-0.48
2019-01-21T04:38:14.088Z,-0.48
2019-01-21T04:39:24.270Z,-0.45
2019-01-21T04:40:34.354Z,-0.4
2019-01-21T04:41:43.924Z,-0.37
2019-01-21T04:42:53.748Z,-0.43
2019-01-21T04:44:03.850Z,-0.48
2019-01-21T04:45:13.977Z,-0.4
2019-01-21T04:46:24.147Z,-0.37
2019-01-21T04:47:34.222Z,-0.48
2019-01-21T04:48:44.331Z,-0.52
2019-01-21T04:49:54.514Z,-0.52
2019-01-21T04:51:04.610Z,-0.41
2019-01-21T04:52:14.756Z,-0.45
2019-01-21T04:53:25.109Z,-0.45
2019-01-21T04:54:36.165Z,-0.58
2019-01-21T04:55:47.006Z,-0.54
2019-01-21T04:56:57.545Z,-0.48
2019-01-21T04:58:08.070Z,-0.67
2019-01-21T04:59:17.989Z,-0.62
2019-01-21T05:00:27.996Z,-0.55
2019-01-21T05:01:38.092Z,-0.62
2019-01-21T05:02:47.915Z,-0.67
2019-01-21T05:03:58.003Z,-0.59
2019-01-21T05:05:08.113Z,-0.69
2019-01-21T05:06:18.255Z,-0.66
2019-01-21T05:07:28.073Z,-0.64
2019-01-21T05:08:38.202Z,-0.61
2019-01-21T05:09:48.301Z,-0.67
2019-01-21T05:10:58.368Z,-0.61
2019-01-21T05:12:08.460Z,-0.69
2019-01-21T05:13:18.586Z,-0.58
2019-01-21T05:14:28.664Z,-0.56
2019-01-21T05:15:38.244Z,-0.61
2019-01-21T05:16:48.323Z,-0.61
2019-01-21T05:17:58.396Z,-0.59
2019-01-21T05:19:08.223Z,-0.69
2019-01-21T05:20:18.339Z,-0.64
2019-01-21T05:21:28.421Z,-0.61
2019-01-21T05:22:38.232Z,-0.62
2019-01-21T05:23:48.327Z,-0.64
2019-01-21T05:24:58.497Z,-0.56
2019-01-21T05:26:10.591Z,-0.64
2019-01-21T05:27:20.696Z,-0.7
2019-01-21T05:28:30.905Z,-0.66
2019-01-21T05:29:41.226Z,-0.61
2019-01-21T05:30:51.699Z,-0.61
2019-01-21T05:32:02.818Z,-0.66
2019-01-21T05:33:14.158Z,-0.59
2019-01-21T05:34:25.220Z,-0.74
2019-01-21T05:35:35.702Z,-0.62
2019-01-21T05:36:45.930Z,-0.64
2019-01-21T05:37:55.776Z,-0.72
2019-01-21T05:39:08.439Z,-0.66
2019-01-21T05:40:18.538Z,-0.76
2019-01-21T05:41:28.865Z,-0.72
2019-01-21T05:42:38.678Z,-0.72
2019-01-21T05:43:48.496Z,-0.73
2019-01-21T05:44:58.594Z,-0.72
2019-01-21T05:46:08.385Z,-0.74
2019-01-21T05:47:18.463Z,-0.69
2019-01-21T05:48:28.579Z,-0.8
2019-01-21T05:49:38.696Z,-0.72
2019-01-21T05:50:48.779Z,-0.7
2019-01-21T05:51:58.374Z,-0.73
2019-01-21T05:53:08.450Z,-0.73
2019-01-21T05:54:18.509Z,-0.77
2019-01-21T05:55:28.578Z,-0.91
2019-01-21T05:56:38.139Z,-0.93
2019-01-21T05:57:47.952Z,-0.91
2019-01-21T05:58:58.016Z,-0.89
2019-01-21T06:00:10.972Z,-0.84
2019-01-21T06:01:21.081Z,-0.87
2019-01-21T06:02:31.154Z,-0.85
2019-01-21T06:03:41.211Z,-0.91
2019-01-21T06:04:51.490Z,-0.84
2019-01-21T06:06:01.525Z,-0.92
2019-01-21T06:07:11.375Z,-0.87
2019-01-21T06:08:21.201Z,-0.87
2019-01-21T06:09:31.259Z,-0.87
2019-01-21T06:10:41.060Z,-0.95
2019-01-21T06:11:51.121Z,-0.87
2019-01-21T06:13:01.202Z,-0.84
2019-01-21T06:14:11.270Z,-0.91
2019-01-21T06:15:21.336Z,-0.84
2019-01-21T06:16:31.447Z,-0.93
2019-01-21T06:17:41.293Z,-0.91
2019-01-21T06:18:59.605Z,-0.95
2019-01-21T06:20:09.454Z,-0.91
2019-01-21T06:21:19.517Z,-0.95
2019-01-21T06:22:29.593Z,-0.87
2019-01-21T06:23:39.658Z,-0.85
2019-01-21T06:24:49.905Z,-0.93
2019-01-21T06:26:00.823Z,-0.93
2019-01-21T06:27:10.709Z,-0.92
2019-01-21T06:28:20.496Z,-0.96
2019-01-21T06:29:30.622Z,-0.91
2019-01-21T06:30:40.688Z,-0.96
2019-01-21T06:31:50.223Z,-0.89
2019-01-21T06:33:00.359Z,-0.92
2019-01-21T06:34:12.106Z,-0.87
2019-01-21T06:35:22.482Z,-0.93
2019-01-21T06:36:32.290Z,-0.95
2019-01-21T06:37:42.387Z,-0.85
2019-01-21T06:38:52.665Z,-0.87
2019-01-21T06:40:02.716Z,-0.87
2019-01-21T06:41:12.508Z,-0.87
2019-01-21T06:42:22.575Z,-0.89
2019-01-21T06:43:32.633Z,-0.89
2019-01-21T06:44:42.675Z,-0.91
2019-01-21T06:45:52.487Z,-0.92
2019-01-21T06:47:02.552Z,-0.89
2019-01-21T06:48:12.602Z,-0.91
2019-01-21T06:49:22.648Z,-0.85
2019-01-21T06:50:32.699Z,-0.93
2019-01-21T06:51:42.590Z,-0.84
2019-01-21T06:52:52.635Z,-0.87
2019-01-21T06:54:04.576Z,-0.79
2019-01-21T06:55:14.374Z,-0.73
2019-01-21T06:56:24.472Z,-0.73
2019-01-21T06:57:34.724Z,-0.67
2019-01-21T06:58:44.781Z,-0.74
2019-01-21T06:59:54.812Z,-0.62
2019-01-21T07:01:04.600Z,-0.7
2019-01-21T07:02:14.661Z,-0.62
2019-01-21T07:03:24.530Z,-0.64
2019-01-21T07:04:34.582Z,-0.62
2019-01-21T07:05:44.731Z,-0.56
2019-01-21T07:06:54.834Z,-0.54
2019-01-21T07:08:04.973Z,-0.52
2019-01-21T07:09:15.129Z,-0.46
2019-01-21T07:10:25.178Z,-0.49
2019-01-21T07:11:35.250Z,-0.52
2019-01-21T07:12:45.578Z,-0.46
2019-01-21T07:13:56.196Z,-0.37
2019-01-21T07:15:06.504Z,-0.36
2019-01-21T07:16:16.531Z,-0.31
2019-01-21T07:17:26.643Z,-0.34
2019-01-21T07:18:36.690Z,-0.23
2019-01-21T07:19:48.752Z,-0.25
2019-01-21T07:20:58.834Z,-0.28
2019-01-21T07:22:08.921Z,-0.16
2019-01-21T07:23:18.976Z,-0.2
2019-01-21T07:24:28.764Z,-0.1
2019-01-21T07:25:38.819Z,-0.09
2019-01-21T07:26:48.352Z,-0.1
2019-01-21T07:27:58.185Z,-0.1
2019-01-21T07:29:07.991Z,-0.13
2019-01-21T07:30:17.794Z,-0.05
2019-01-21T07:31:27.840Z,0.03
2019-01-21T07:32:37.632Z,-0.01
2019-01-21T07:33:47.525Z,-0.02
2019-01-21T07:34:57.589Z,0.05
2019-01-21T07:36:07.637Z,0.1
2019-01-21T07:37:17.470Z,0.09
2019-01-21T07:38:27.533Z,0.16
2019-01-21T07:39:38.807Z,0.2
2019-01-21T07:40:48.614Z,0.2
2019-01-21T07:41:58.420Z,0.2
2019-01-21T07:43:08.223Z,0.27
2019-01-21T07:44:18.026Z,0.32
2019-01-21T07:45:27.841Z,0.37
2019-01-21T07:46:37.903Z,0.47
2019-01-21T07:47:47.442Z,0.53
2019-01-21T07:48:57.235Z,0.5
2019-01-21T07:50:07.726Z,0.5
2019-01-21T07:51:32.449Z,0.58
2019-01-21T07:52:42.558Z,0.63
2019-01-21T07:53:52.388Z,0.6
2019-01-21T07:55:02.491Z,0.75
2019-01-21T07:56:12.587Z,0.72
2019-01-21T07:57:22.742Z,0.67
2019-01-21T07:58:32.517Z,0.79
2019-01-21T07:59:42.574Z,0.86
2019-01-21T08:00:52.368Z,0.92
2019-01-21T08:02:02.147Z,0.84
2019-01-21T08:03:12.257Z,0.96
2019-01-21T08:04:22.062Z,1.08
2019-01-21T08:05:31.854Z,1.07
2019-01-21T08:06:41.993Z,1.12
2019-01-21T08:07:53.119Z,1.15
2019-01-21T08:09:04.988Z,1.21
2019-01-21T08:10:15.224Z,1.2
2019-01-21T08:11:25.288Z,1.28
2019-01-21T08:12:35.322Z,1.33
2019-01-21T08:13:45.393Z,1.35
2019-01-21T08:14:55.439Z,1.36
2019-01-21T08:16:05.848Z,1.36
2019-01-21T08:17:15.944Z,1.44
2019-01-21T08:18:26.053Z,1.54
2019-01-21T08:19:35.851Z,1.53
2019-01-21T08:20:45.662Z,1.6
2019-01-21T08:21:56.162Z,1.58
2019-01-21T08:23:06.872Z,1.61
2019-01-21T08:24:17.175Z,1.69
2019-01-21T08:25:27.012Z,1.72
2019-01-21T08:26:37.115Z,1.64
2019-01-21T08:27:46.929Z,1.75
2019-01-21T08:28:56.721Z,1.76
2019-01-21T08:30:08.233Z,1.79
2019-01-21T08:31:18.017Z,1.76
2019-01-21T08:32:28.056Z,1.79
2019-01-21T08:33:38.160Z,1.83
2019-01-21T08:34:48.215Z,1.9
2019-01-21T08:35:58.267Z,1.9
2019-01-21T08:37:09.878Z,2.02
2019-01-21T08:38:19.925Z,2.02
2019-01-21T08:39:29.751Z,2.12
2019-01-21T08:40:39.911Z,2.13
2019-01-21T08:41:49.961Z,2.22
2019-01-21T08:43:00.089Z,2.15
2019-01-21T08:44:10.211Z,2.23
2019-01-21T08:45:20.306Z,2.29
2019-01-21T08:46:30.577Z,2.41
2019-01-21T08:47:40.634Z,2.65
2019-01-21T08:48:50.518Z,3.09
2019-01-21T08:50:02.375Z,3.49
2019-01-21T08:51:12.444Z,4.15
2019-01-21T08:52:22.494Z,4.72
2019-01-21T08:53:32.309Z,5.24
2019-01-21T08:54:42.102Z,5.59
2019-01-21T08:55:51.905Z,5.84
2019-01-21T08:57:01.958Z,6.18
2019-01-21T08:58:11.509Z,6.46
2019-01-21T08:59:21.583Z,6.62
2019-01-21T09:00:31.386Z,6.65
2019-01-21T09:01:40.930Z,6.4
2019-01-21T09:02:50.976Z,5.98
2019-01-21T09:04:00.775Z,5.7
2019-01-21T09:05:11.165Z,5.77
2019-01-21T09:06:21.223Z,5.92
2019-01-21T09:07:31.317Z,5.6
2019-01-21T09:08:42.356Z,5.2
2019-01-21T09:09:52.426Z,4.83
2019-01-21T09:11:02.774Z,4.51
2019-01-21T09:12:12.848Z,4.18
2019-01-21T09:13:22.941Z,4.18
2019-01-21T09:14:33.101Z,4.1
2019-01-21T09:15:42.895Z,3.99
2019-01-21T09:16:52.979Z,3.92
2019-01-21T09:18:03.024Z,3.85
2019-01-21T09:19:13.074Z,3.76
2019-01-21T09:20:23.118Z,3.78
2019-01-21T09:21:33.180Z,3.81
2019-01-21T09:22:43.445Z,3.72
2019-01-21T09:23:53.503Z,3.78
2019-01-21T09:25:03.820Z,3.85
2019-01-21T09:26:13.858Z,3.79
2019-01-21T09:27:23.694Z,3.82
2019-01-21T09:28:33.494Z,3.9
2019-01-21T09:29:43.538Z,3.84
2019-01-21T09:30:53.623Z,3.92
2019-01-21T09:32:05.350Z,3.85
2019-01-21T09:33:15.398Z,3.99
2019-01-21T09:34:25.519Z,3.99
2019-01-21T09:35:35.584Z,3.96
2019-01-21T09:36:45.655Z,3.94
2019-01-21T09:37:55.720Z,4.02
2019-01-21T09:39:08.220Z,4.02
2019-01-21T09:40:18.288Z,4
2019-01-21T09:41:28.380Z,4.02
2019-01-21T09:42:38.194Z,4.1
2019-01-21T09:43:48.258Z,4.08
2019-01-21T09:44:58.034Z,4.1
2019-01-21T09:46:09.763Z,4.07
2019-01-21T09:47:19.673Z,4.1
2019-01-21T09:48:29.731Z,4.12
2019-01-21T09:49:45.822Z,4.15
2019-01-21T09:50:55.886Z,4.26
2019-01-21T09:52:06.550Z,4.17
2019-01-21T09:53:16.370Z,4.17
2019-01-21T09:54:26.452Z,4.17
2019-01-21T09:55:36.541Z,4.29
2019-01-21T09:56:46.626Z,4.2
2019-01-21T09:57:56.424Z,4.18
2019-01-21T09:59:08.635Z,4.26
2019-01-21T10:00:19.147Z,4.32
2019-01-21T10:01:29.210Z,4.21
2019-01-21T10:02:39.287Z,4.3
2019-01-21T10:03:49.977Z,4.29
2019-01-21T10:05:00.027Z,4.35
2019-01-21T10:06:10.334Z,4.32
2019-01-21T10:07:20.402Z,4.46
2019-01-21T10:08:30.467Z,4.57
2019-01-21T10:09:40.306Z,4.64
2019-01-21T10:10:49.862Z,4.66
2019-01-21T10:11:59.921Z,4.68
2019-01-21T10:13:09.995Z,4.71
2019-01-21T10:14:20.080Z,4.71
2019-01-21T10:15:30.229Z,4.71
2019-01-21T10:16:40.328Z,4.66
2019-01-21T10:18:05.027Z,4.69
2019-01-21T10:19:15.147Z,4.68
2019-01-21T10:20:25.197Z,4.71
2019-01-21T10:21:35.257Z,4.69
2019-01-21T10:22:45.326Z,4.74
2019-01-21T10:23:55.143Z,4.69
2019-01-21T10:25:05.209Z,4.75
2019-01-21T10:26:15.263Z,4.83
2019-01-21T10:27:25.329Z,4.75
2019-01-21T10:28:35.240Z,4.84
2019-01-21T10:29:45.326Z,4.83
2019-01-21T10:30:55.481Z,4.97
2019-01-21T10:32:05.673Z,5.02
2019-01-21T10:33:15.731Z,5.06
2019-01-21T10:34:26.239Z,5.05
2019-01-21T10:35:36.282Z,5.05
2019-01-21T10:36:46.365Z,5.09
2019-01-21T10:37:55.919Z,5.06
2019-01-21T10:39:05.664Z,5.13
2019-01-21T10:40:15.213Z,5.21
2019-01-21T10:41:25.015Z,5.23
2019-01-21T10:42:35.096Z,5.24
2019-01-21T10:43:45.343Z,5.27
2019-01-21T10:44:55.398Z,5.28
2019-01-21T10:46:07.474Z,5.42
2019-01-21T10:47:17.535Z,5.46
2019-01-21T10:48:27.669Z,5.34
2019-01-21T10:49:37.820Z,5.39
2019-01-21T10:50:47.922Z,5.39
2019-01-21T10:51:57.982Z,5.45
2019-01-21T10:53:08.747Z,5.46
2019-01-21T10:54:18.822Z,5.52
2019-01-21T10:55:28.875Z,5.62
2019-01-21T10:56:38.996Z,5.59
2019-01-21T10:57:49.053Z,5.64
2019-01-21T10:58:59.115Z,5.55
2019-01-21T11:00:09.433Z,5.67
2019-01-21T11:01:19.812Z,5.66
2019-01-21T11:02:30.188Z,5.59
2019-01-21T11:03:39.741Z,5.7
2019-01-21T11:04:49.810Z,5.7
2019-01-21T11:05:59.979Z,5.66
2019-01-21T11:07:11.361Z,5.69
2019-01-21T11:08:21.424Z,5.7
2019-01-21T11:09:31.785Z,5.69
2019-01-21T11:10:42.055Z,5.75
2019-01-21T11:11:58.719Z,5.81
2019-01-21T11:13:08.789Z,5.78
2019-01-21T11:14:18.863Z,5.8
2019-01-21T11:15:29.066Z,5.84
2019-01-21T11:16:38.884Z,5.81
2019-01-21T11:17:48.879Z,5.95
2019-01-21T11:18:58.935Z,6
2019-01-21T11:20:09.280Z,5.89
2019-01-21T11:21:18.828Z,5.89
2019-01-21T11:22:28.643Z,5.85
2019-01-21T11:23:38.693Z,5.88
2019-01-21T11:24:48.765Z,6
2019-01-21T11:25:58.827Z,5.88
2019-01-21T11:27:08.627Z,5.91
2019-01-21T11:28:18.747Z,5.98
2019-01-21T11:29:28.829Z,5.96
2019-01-21T11:30:38.944Z,5.99
2019-01-21T11:31:49.114Z,6.03
2019-01-21T11:32:59.315Z,6.17
2019-01-21T11:34:09.392Z,6.2
2019-01-21T11:35:19.195Z,6.13
2019-01-21T11:36:29.248Z,6.18
2019-01-21T11:37:39.401Z,6.1
2019-01-21T11:38:49.524Z,6
2019-01-21T11:39:59.582Z,5.91
2019-01-21T11:41:09.393Z,5.98
2019-01-21T11:42:18.996Z,6
2019-01-21T11:43:29.318Z,6.02
2019-01-21T11:44:39.308Z,6.06
2019-01-21T11:45:49.657Z,6.09
2019-01-21T11:46:59.741Z,6.2
2019-01-21T11:48:10.989Z,6.21
2019-01-21T11:49:20.772Z,6.21
2019-01-21T11:50:31.538Z,6.24
2019-01-21T11:51:41.704Z,6.29
2019-01-21T11:52:51.040Z,6.31
2019-01-21T11:54:01.110Z,6.36
2019-01-21T11:55:10.959Z,6.31
2019-01-21T11:56:20.764Z,6.39
2019-01-21T11:57:30.809Z,6.52
2019-01-21T11:58:40.920Z,6.39
2019-01-21T11:59:51.291Z,6.46
2019-01-21T12:01:02.072Z,6.43
2019-01-21T12:02:12.135Z,6.28
2019-01-21T12:03:28.293Z,6.31
2019-01-21T12:04:38.367Z,6.29
2019-01-21T12:05:48.437Z,6.34
2019-01-21T12:06:58.498Z,6.42
2019-01-21T12:08:08.605Z,6.36
2019-01-21T12:09:18.783Z,6.39
2019-01-21T12:10:29.129Z,6.47
2019-01-21T12:11:39.212Z,6.39
2019-01-21T12:12:49.278Z,6.33
2019-01-21T12:13:59.348Z,6.34
2019-01-21T12:15:09.523Z,6.34
2019-01-21T12:16:19.624Z,6.34
2019-01-21T12:17:29.694Z,6.42
2019-01-21T12:18:39.951Z,6.44
2019-01-21T12:19:49.770Z,6.4
2019-01-21T12:20:59.869Z,6.4
2019-01-21T12:22:09.670Z,6.42
2019-01-21T12:23:19.784Z,6.42
2019-01-21T12:24:29.844Z,6.47
2019-01-21T12:25:39.639Z,6.44
2019-01-21T12:26:49.457Z,6.54
2019-01-21T12:27:59.269Z,6.6
2019-01-21T12:29:10.621Z,6.58
2019-01-21T12:30:20.719Z,6.57
2019-01-21T12:31:30.776Z,6.55
2019-01-21T12:32:40.598Z,6.55
2019-01-21T12:33:50.642Z,6.58
2019-01-21T12:35:00.727Z,6.57
2019-01-21T12:36:10.646Z,6.58
2019-01-21T12:37:20.496Z,6.51
2019-01-21T12:38:30.444Z,6.57
2019-01-21T12:39:40.506Z,6.52
2019-01-21T12:40:50.620Z,6.51
2019-01-21T12:42:00.680Z,6.58
2019-01-21T12:43:10.745Z,6.54
2019-01-21T12:44:20.560Z,6.61
2019-01-21T12:45:30.615Z,6.68
2019-01-21T12:46:41.970Z,6.8
2019-01-21T12:47:51.521Z,7.08
2019-01-21T12:49:01.353Z,7.23
2019-01-21T12:50:11.484Z,7.63
2019-01-21T12:51:21.824Z,8.32
2019-01-21T12:52:31.914Z,9.14
2019-01-21T12:53:41.730Z,9.21
2019-01-21T12:54:51.558Z,8.83
2019-01-21T12:56:02.269Z,8.47
2019-01-21T12:57:11.851Z,8.34
2019-01-21T12:58:21.924Z,8.53
2019-01-21T12:59:32.207Z,9.35
2019-01-21T13:00:42.299Z,9.7
2019-01-21T13:01:52.426Z,10.17
2019-01-21T13:03:02.573Z,10.63
2019-01-21T13:04:12.635Z,10.9
2019-01-21T13:05:22.692Z,10.9
2019-01-21T13:06:32.772Z,10.35
2019-01-21T13:07:42.863Z,9.77
2019-01-21T13:08:52.964Z,9.23
2019-01-21T13:10:02.778Z,8.83
2019-01-21T13:11:12.867Z,8.44
2019-01-21T13:12:22.930Z,8.17
2019-01-21T13:13:33.044Z,8.01
2019-01-21T13:14:43.133Z,7.68
2019-01-21T13:15:53.204Z,7.54
2019-01-21T13:17:03.285Z,7.36
2019-01-21T13:18:13.358Z,7.22
2019-01-21T13:19:24.000Z,7.09
2019-01-21T13:20:35.603Z,7.01
2019-01-21T13:21:45.454Z,6.97
2019-01-21T13:22:56.491Z,6.88
2019-01-21T13:24:06.783Z,6.75
2019-01-21T13:25:16.879Z,6.62
2019-01-21T13:26:26.945Z,6.51
2019-01-21T13:27:37.117Z,6.42
2019-01-21T13:28:47.180Z,6.42
2019-01-21T13:29:57.044Z,6.4
2019-01-21T13:31:08.618Z,6.4
2019-01-21T13:32:18.720Z,6.37
2019-01-21T13:33:28.515Z,6.28
2019-01-21T13:34:38.609Z,6.31
2019-01-21T13:35:48.956Z,6.2
2019-01-21T13:36:59.072Z,6.28
2019-01-21T13:38:09.126Z,6.26
2019-01-21T13:39:19.201Z,6.2
2019-01-21T13:40:29.102Z,6.2
2019-01-21T13:41:39.158Z,6.15
2019-01-21T13:42:49.213Z,6.24
2019-01-21T13:43:59.286Z,6.15
2019-01-21T13:45:09.352Z,6.09
2019-01-21T13:46:19.496Z,6.07
2019-01-21T13:47:29.313Z,5.98
2019-01-21T13:48:39.201Z,5.99
2019-01-21T13:49:50.572Z,5.88
2019-01-21T13:51:00.624Z,5.96
2019-01-21T13:52:10.805Z,5.92
2019-01-21T13:53:20.431Z,5.84
2019-01-21T13:54:30.521Z,5.8
2019-01-21T13:55:40.369Z,5.78
2019-01-21T13:56:50.440Z,5.77
2019-01-21T13:58:00.542Z,5.82
2019-01-21T13:59:10.634Z,5.69
2019-01-21T14:00:20.704Z,5.73
2019-01-21T14:01:30.772Z,5.67
2019-01-21T14:02:40.855Z,5.73
2019-01-21T14:03:51.251Z,5.64
2019-01-21T14:05:01.324Z,5.6
2019-01-21T14:06:11.375Z,5.6
2019-01-21T14:07:21.476Z,5.57
2019-01-21T14:08:31.618Z,5.54
2019-01-21T14:09:41.802Z,5.49
2019-01-21T14:10:52.892Z,5.49
2019-01-21T14:12:03.775Z,5.48
2019-01-21T14:13:14.095Z,5.45
2019-01-21T14:14:24.040Z,5.42
2019-01-21T14:15:34.159Z,5.42
2019-01-21T14:16:44.332Z,5.39
2019-01-21T14:17:54.412Z,5.31
2019-01-21T14:19:04.758Z,5.31
2019-01-21T14:20:19.258Z,5.37
2019-01-21T14:21:29.814Z,5.36
2019-01-21T14:22:40.020Z,5.37
2019-01-21T14:23:50.095Z,5.42
2019-01-21T14:25:00.161Z,5.42
2019-01-21T14:26:10.295Z,5.27
2019-01-21T14:27:20.847Z,5.27
2019-01-21T14:28:30.938Z,5.23
2019-01-21T14:29:40.998Z,5.21
2019-01-21T14:30:51.104Z,5.12
2019-01-21T14:32:02.901Z,5.05
2019-01-21T14:33:13.045Z,5.05
2019-01-21T14:34:23.091Z,5.06
2019-01-21T14:35:33.204Z,5.03
2019-01-21T14:36:43.558Z,4.91
2019-01-21T14:37:53.877Z,4.98
2019-01-21T14:39:03.784Z,4.79
2019-01-21T14:40:13.864Z,4.85
2019-01-21T14:41:24.342Z,4.83
2019-01-21T14:42:34.457Z,4.76
2019-01-21T14:43:44.025Z,4.72
2019-01-21T14:44:54.118Z,4.69
2019-01-21T14:46:04.176Z,4.64
2019-01-21T14:47:15.701Z,4.6
2019-01-21T14:48:25.522Z,4.54
2019-01-21T14:49:35.667Z,4.48
2019-01-21T14:50:50.363Z,4.51
2019-01-21T14:52:00.512Z,4.39
2019-01-21T14:53:10.983Z,4.36
2019-01-21T14:54:20.852Z,4.3
2019-01-21T14:55:30.720Z,4.22
2019-01-21T14:56:40.943Z,4.26
2019-01-21T14:57:51.031Z,4.28
2019-01-21T14:59:02.057Z,4.21
2019-01-21T15:00:12.610Z,4.2
2019-01-21T15:01:22.715Z,4.21
2019-01-21T15:02:32.514Z,4.11
2019-01-21T15:03:42.748Z,4.08
2019-01-21T15:04:53.030Z,4.03
2019-01-21T15:06:05.478Z,3.92
2019-01-21T15:07:15.661Z,3.9
2019-01-21T15:08:25.770Z,3.84
2019-01-21T15:09:35.790Z,3.85
2019-01-21T15:10:46.019Z,3.75
2019-01-21T15:11:56.086Z,3.78
2019-01-21T15:13:07.342Z,3.74
2019-01-21T15:14:17.334Z,3.67
2019-01-21T15:15:27.673Z,3.54
2019-01-21T15:16:37.644Z,3.48
2019-01-21T15:17:47.877Z,3.53
2019-01-21T15:18:58.204Z,3.48
2019-01-21T15:20:24.347Z,3.4
2019-01-21T15:21:34.670Z,3.4
2019-01-21T15:22:45.054Z,3.26
2019-01-21T15:23:55.415Z,3.34
2019-01-21T15:25:08.969Z,3.3
2019-01-21T15:26:19.292Z,3.26
2019-01-21T15:27:29.563Z,3.19
2019-01-21T15:28:40.368Z,3.16
2019-01-21T15:29:50.528Z,3.16
2019-01-21T15:31:03.096Z,3.13
2019-01-21T15:32:13.354Z,3.02
2019-01-21T15:33:23.991Z,3.05
2019-01-21T15:34:34.377Z,2.99
2019-01-21T15:35:44.733Z,2.96
2019-01-21T15:36:54.976Z,2.9
2019-01-21T15:38:08.567Z,2.91
2019-01-21T15:39:18.723Z,2.85
2019-01-21T15:40:29.107Z,2.77
2019-01-21T15:41:39.454Z,2.7
2019-01-21T15:42:51.291Z,2.77
2019-01-21T15:44:01.984Z,2.65
2019-01-21T15:45:12.478Z,2.7
2019-01-21T15:46:22.535Z,2.62
2019-01-21T15:47:32.959Z,2.63
2019-01-21T15:48:42.855Z,2.58
2019-01-21T15:49:52.744Z,2.48
2019-01-21T15:51:09.564Z,2.49
2019-01-21T15:52:19.389Z,2.4
2019-01-21T15:53:29.492Z,2.38
2019-01-21T15:54:39.301Z,2.42
2019-01-21T15:55:49.437Z,2.29
2019-01-21T15:56:59.301Z,2.29
2019-01-21T15:58:09.119Z,2.34
2019-01-21T15:59:26.774Z,2.29
2019-01-21T16:00:36.618Z,2.29
2019-01-21T16:01:46.718Z,2.22
2019-01-21T16:02:56.824Z,2.18